Time;durP1;ratioP1;P1;durP2;ratioP2;P2;SDS_P1;SDS_P2;PMS_P1;PMS_P2;Temp;Humidity;BMP_temperature;BMP_pressure;BME280_temperature;BME280_humidity;BME280_pressure;Samples;Min_cycle;Max_cycle;Signal;HPM_P1;HPM_P2
2023/01/04 00:02:21;;;;;;;8.48;6.45;;;7.00;99.90;;;;;;5051367;28;20048;-53
2023/01/04 00:05:07;;;;;;;9.80;7.00;;;6.90;99.90;;;;;;5052662;28;20071;-50
2023/01/04 00:07:53;;;;;;;12.07;7.82;;;6.80;99.90;;;;;;5052079;28;20017;-55
2023/01/04 00:10:39;;;;;;;12.07;8.02;;;6.80;99.90;;;;;;5050647;28;20059;-51
2023/01/04 00:13:25;;;;;;;8.88;7.95;;;6.80;99.90;;;;;;5051549;28;20493;-50
2023/01/04 00:16:14;;;;;;;10.77;7.78;;;6.70;99.90;;;;;;5051832;28;20489;-48
2023/01/04 00:19:00;;;;;;;10.40;7.90;;;6.70;99.90;;;;;;5050489;28;20025;-46
2023/01/04 00:21:46;;;;;;;11.93;9.10;;;6.70;99.90;;;;;;5049777;28;20032;-46
2023/01/04 00:24:32;;;;;;;9.77;7.97;;;6.80;99.90;;;;;;5050131;28;20481;-46
2023/01/04 00:27:18;;;;;;;11.30;8.43;;;6.80;99.90;;;;;;5049983;28;20103;-46
2023/01/04 00:30:04;;;;;;;13.32;9.25;;;6.90;99.90;;;;;;5050233;28;20028;-47
2023/01/04 00:32:50;;;;;;;11.98;9.55;;;6.90;99.90;;;;;;5053462;28;20112;-49
2023/01/04 00:35:36;;;;;;;11.30;8.95;;;6.90;99.90;;;;;;5049450;28;20455;-51
2023/01/04 00:38:22;;;;;;;12.13;8.88;;;6.90;99.90;;;;;;5049052;28;20041;-51
2023/01/04 00:41:10;;;;;;;12.60;8.23;;;6.90;99.90;;;;;;5050201;28;20028;-45
2023/01/04 00:43:57;;;;;;;10.98;7.78;;;6.90;99.90;;;;;;5049478;28;20037;-44
2023/01/04 00:46:43;;;;;;;10.40;7.05;;;6.90;99.90;;;;;;5049956;28;20548;-48
2023/01/04 00:49:30;;;;;;;9.05;7.35;;;6.90;99.90;;;;;;5049599;28;20033;-48
2023/01/04 00:52:16;;;;;;;11.45;7.78;;;6.90;99.90;;;;;;5049582;28;20025;-46
2023/01/04 00:55:02;;;;;;;10.85;7.75;;;6.90;99.90;;;;;;5049230;28;20021;-45
2023/01/04 00:57:48;;;;;;;10.35;7.68;;;6.90;99.90;;;;;;5049230;28;20056;-47
2023/01/04 01:00:34;;;;;;;10.02;6.80;;;6.90;99.90;;;;;;5052051;28;20045;-46
2023/01/04 01:03:20;;;;;;;8.18;6.57;;;6.80;99.90;;;;;;5052947;28;20029;-46
2023/01/04 01:06:07;;;;;;;12.13;5.95;;;6.70;99.90;;;;;;5053038;28;20032;-49
2023/01/04 01:08:53;;;;;;;7.97;5.88;;;6.70;99.90;;;;;;5053830;28;20040;-52
2023/01/04 01:11:40;;;;;;;10.10;6.07;;;6.70;99.90;;;;;;5054081;28;20025;-50
2023/01/04 01:14:26;;;;;;;9.45;5.93;;;6.80;99.90;;;;;;5052757;28;20029;-47
2023/01/04 01:17:12;;;;;;;9.25;6.47;;;6.80;99.90;;;;;;5052611;28;20033;-45
2023/01/04 01:19:58;;;;;;;9.90;5.97;;;6.70;99.90;;;;;;5053178;28;20123;-45
2023/01/04 01:22:44;;;;;;;9.55;5.75;;;6.70;99.90;;;;;;5052839;28;20408;-47
2023/01/04 01:25:32;;;;;;;8.20;5.95;;;6.70;99.90;;;;;;5052760;28;20493;-52
2023/01/04 01:28:18;;;;;;;8.15;6.68;;;6.80;99.90;;;;;;5052696;28;20423;-46
2023/01/04 01:31:06;;;;;;;10.73;6.57;;;6.70;99.90;;;;;;5015107;28;1086642;-47
2023/01/04 01:33:55;;;;;;;9.25;6.82;;;6.60;99.90;;;;;;5054217;28;20029;-48
2023/01/04 01:36:42;;;;;;;7.75;5.85;;;6.40;99.90;;;;;;5053251;28;20025;-46
2023/01/04 01:39:28;;;;;;;8.85;6.20;;;6.40;99.90;;;;;;5040060;28;20035;-46
2023/01/04 01:42:22;;;;;;;8.88;6.47;;;6.40;99.90;;;;;;5053978;28;20243;-46
2023/01/04 01:45:31;;;;;;;10.05;7.25;;;6.50;99.90;;;;;;5053402;28;20033;-47
2023/01/04 01:48:24;;;;;;;12.38;8.35;;;6.50;99.90;;;;;;5054709;28;20453;-51
2023/01/04 01:51:10;;;;;;;13.25;8.93;;;6.60;99.90;;;;;;5053927;28;20052;-48
2023/01/04 01:54:21;;;;;;;11.35;8.20;;;6.70;99.90;;;;;;5053793;28;20036;-48
2023/01/04 01:57:11;;;;;;;7.70;6.65;;;6.70;99.90;;;;;;5052640;28;20021;-47
2023/01/04 02:00:02;;;;;;;10.07;6.32;;;6.80;99.90;;;;;;5052427;28;20484;-50
2023/01/04 02:02:56;;;;;;;9.82;5.38;;;6.80;99.90;;;;;;5053006;28;20033;-47
2023/01/04 02:05:44;;;;;;;7.25;5.38;;;6.90;99.90;;;;;;5052904;28;20025;-48
2023/01/04 02:08:30;;;;;;;6.50;5.38;;;6.90;99.90;;;;;;5053900;28;20021;-50
2023/01/04 02:11:16;;;;;;;8.15;5.72;;;6.90;99.90;;;;;;5053605;28;20064;-53
2023/01/04 02:17:31;;;;;;;7.85;5.68;;;6.90;99.90;;;;;;5053885;28;20033;-51
2023/01/04 02:20:31;;;;;;;11.10;5.88;;;6.90;99.90;;;;;;5052643;28;20044;-50
2023/01/04 02:23:53;;;;;;;9.70;5.93;;;6.90;99.90;;;;;;5053397;28;20036;-54
2023/01/04 02:27:20;;;;;;;9.25;5.97;;;6.90;99.90;;;;;;5053042;28;20025;-51
2023/01/04 02:30:09;;;;;;;9.55;6.15;;;6.80;99.90;;;;;;5053086;28;20029;-48
2023/01/04 02:33:16;;;;;;;7.78;5.85;;;6.70;99.90;;;;;;5053079;28;20112;-48
2023/01/04 02:36:20;;;;;;;8.43;6.15;;;6.70;99.90;;;;;;5052937;28;20025;-49
2023/01/04 02:39:34;;;;;;;7.38;6.43;;;6.70;99.90;;;;;;5052498;28;20036;-51
2023/01/04 02:46:01;;;;;;;10.65;6.82;;;6.60;99.90;;;;;;5053061;28;20493;-51
2023/01/04 02:51:52;;;;;;;7.30;5.80;;;6.50;99.90;;;;;;5052911;28;20370;-51
2023/01/04 02:54:39;;;;;;;9.32;5.82;;;6.50;99.90;;;;;;5053545;28;20067;-53
2023/01/04 02:57:52;;;;;;;7.35;5.78;;;6.60;99.90;;;;;;5054024;28;20033;-51
2023/01/04 03:07:38;;;;;;;7.15;5.85;;;6.50;99.90;;;;;;5053372;28;20029;-48
2023/01/04 03:10:40;;;;;;;12.10;5.75;;;6.50;99.90;;;;;;5055162;28;20048;-49
2023/01/04 03:13:46;;;;;;;7.25;5.88;;;6.50;99.90;;;;;;5062544;28;20025;-50
2023/01/04 03:16:34;;;;;;;7.13;5.03;;;6.50;99.90;;;;;;5064602;28;20037;-48
2023/01/04 03:35:29;;;;;;;8.73;6.03;;;6.60;99.90;;;;;;5052299;28;20497;-48
2023/01/04 03:51:15;;;;;;;9.60;4.70;;;6.50;99.90;;;;;;5051267;28;20396;-50
2023/01/04 03:54:24;;;;;;;7.53;4.50;;;6.40;99.90;;;;;;5050919;28;20091;-47
2023/01/04 03:57:11;;;;;;;9.35;4.40;;;6.50;99.90;;;;;;5052123;28;20037;-54
2023/01/04 04:00:08;;;;;;;9.90;4.75;;;6.70;99.90;;;;;;5050386;28;20415;-49
2023/01/04 04:03:06;;;;;;;8.00;4.10;;;6.60;99.90;;;;;;5050699;28;20025;-48
2023/01/04 04:08:56;;;;;;;6.95;3.80;;;6.60;99.90;;;;;;5051422;28;20025;-47
2023/01/04 04:11:42;;;;;;;7.25;4.65;;;6.70;99.90;;;;;;5050607;28;20021;-48
2023/01/04 04:14:28;;;;;;;6.43;3.80;;;6.70;99.90;;;;;;5050522;28;20511;-48
2023/01/04 04:17:14;;;;;;;4.93;3.22;;;6.70;99.90;;;;;;5050060;28;20512;-52
2023/01/04 04:19:59;;;;;;;5.47;3.70;;;6.70;99.90;;;;;;5050203;28;20034;-48
2023/01/04 04:22:45;;;;;;;4.45;3.47;;;6.70;99.90;;;;;;5051186;28;20032;-49
2023/01/04 04:25:31;;;;;;;6.93;3.40;;;6.60;99.90;;;;;;5049927;28;20401;-49
2023/01/04 04:28:17;;;;;;;5.95;3.75;;;6.60;99.90;;;;;;5049893;28;20055;-50
2023/01/04 04:31:04;;;;;;;6.57;3.20;;;6.70;99.90;;;;;;5050309;28;20041;-49
2023/01/04 04:33:50;;;;;;;5.30;2.85;;;6.90;99.90;;;;;;5051895;28;20029;-48
2023/01/04 04:36:36;;;;;;;4.20;2.97;;;6.80;99.90;;;;;;5050992;28;20025;-50
2023/01/04 04:39:22;;;;;;;6.18;3.30;;;6.90;99.90;;;;;;5050237;28;20032;-48
2023/01/04 04:42:08;;;;;;;6.18;3.25;;;6.90;99.90;;;;;;5049932;28;20453;-51
2023/01/04 04:44:54;;;;;;;6.45;2.97;;;6.90;99.90;;;;;;5050204;28;20029;-48
2023/01/04 04:47:40;;;;;;;4.18;2.60;;;7.00;99.90;;;;;;5049884;28;20036;-48
2023/01/04 04:50:26;;;;;;;5.68;2.70;;;7.20;99.90;;;;;;5050193;28;20057;-49
2023/01/04 04:53:12;;;;;;;6.40;3.30;;;7.20;99.90;;;;;;5049916;28;20037;-49
2023/01/04 04:55:58;;;;;;;6.68;3.40;;;7.20;99.90;;;;;;5051016;28;20378;-48
2023/01/04 04:58:44;;;;;;;7.22;2.67;;;7.20;99.90;;;;;;5050621;28;20033;-51
2023/01/04 05:01:30;;;;;;;8.88;2.60;;;7.20;99.90;;;;;;5051303;28;20029;-50
2023/01/04 05:04:18;;;;;;;4.90;2.92;;;7.20;99.90;;;;;;5049625;28;20404;-51
2023/01/04 05:07:04;;;;;;;2.92;2.50;;;7.20;99.90;;;;;;5049898;28;20025;-52
2023/01/04 05:09:50;;;;;;;5.47;2.60;;;7.20;99.90;;;;;;5049830;28;20022;-53
2023/01/04 05:15:43;;;;;;;21.35;9.05;;;7.30;99.90;;;;;;5050386;28;20509;-50
2023/01/04 05:18:29;;;;;;;8.60;3.22;;;7.30;99.90;;;;;;5049855;28;20545;-48
2023/01/04 05:21:15;;;;;;;4.47;2.78;;;7.40;99.90;;;;;;5050875;28;20029;-49
2023/01/04 05:24:01;;;;;;;3.95;2.40;;;7.40;99.90;;;;;;5049683;28;20099;-47
2023/01/04 05:26:47;;;;;;;5.35;2.40;;;7.50;99.90;;;;;;5049924;28;20512;-52
2023/01/04 05:32:37;;;;;;;4.63;2.15;;;7.60;99.90;;;;;;5049935;28;20032;-47
2023/01/04 05:35:23;;;;;;;4.70;2.70;;;7.60;99.90;;;;;;5050660;28;20017;-46
2023/01/04 05:38:09;;;;;;;4.95;2.75;;;7.70;99.90;;;;;;5049480;28;20022;-47
2023/01/04 05:40:56;;;;;;;3.85;2.60;;;7.70;99.90;;;;;;5037868;28;20117;-46
2023/01/04 05:43:41;;;;;;;3.03;2.28;;;7.80;99.90;;;;;;5049089;28;20504;-53
2023/01/04 05:46:27;;;;;;;4.90;2.80;;;7.70;99.90;;;;;;5051333;28;20056;-45
2023/01/04 05:49:13;;;;;;;4.78;2.65;;;7.80;99.90;;;;;;5040233;28;20087;-46
2023/01/04 05:51:59;;;;;;;4.22;2.58;;;7.80;99.90;;;;;;5052874;28;20106;-50
2023/01/04 05:54:45;;;;;;;5.38;3.13;;;7.80;99.90;;;;;;5053460;28;20033;-46
2023/01/04 05:57:31;;;;;;;5.70;2.70;;;7.80;99.90;;;;;;5052939;28;20443;-48
2023/01/04 06:00:17;;;;;;;5.28;2.63;;;7.90;99.90;;;;;;5053043;28;20033;-53
2023/01/04 06:03:03;;;;;;;4.97;2.70;;;7.90;99.90;;;;;;5054374;28;20060;-51
2023/01/04 06:05:50;;;;;;;5.43;3.20;;;8.00;99.90;;;;;;5052952;28;20401;-45
2023/01/04 06:08:36;;;;;;;6.80;3.20;;;7.90;99.90;;;;;;5054951;28;20100;-47
2023/01/04 06:11:22;;;;;;;3.92;3.05;;;7.90;99.90;;;;;;5055068;28;20036;-52
2023/01/04 06:14:08;;;;;;;5.20;3.42;;;7.90;99.90;;;;;;5053602;28;20079;-52
2023/01/04 06:16:54;;;;;;;4.20;3.10;;;8.00;99.90;;;;;;5053348;28;20025;-51
2023/01/04 06:19:40;;;;;;;5.13;3.55;;;8.00;99.90;;;;;;5056572;28;20029;-48
2023/01/04 06:22:27;;;;;;;5.65;3.40;;;8.00;99.90;;;;;;5053446;28;20025;-44
2023/01/04 06:25:13;;;;;;;5.30;3.75;;;8.00;99.90;;;;;;5052544;28;20031;-48
2023/01/04 06:27:59;;;;;;;6.22;3.60;;;8.00;99.90;;;;;;5052239;28;20036;-53
2023/01/04 06:30:45;;;;;;;10.15;4.07;;;8.00;99.90;;;;;;5052211;28;20025;-51
2023/01/04 06:33:31;;;;;;;5.47;3.58;;;8.00;99.90;;;;;;5052242;28;20053;-52
2023/01/04 06:36:17;;;;;;;4.93;3.70;;;8.00;99.90;;;;;;5053334;28;20051;-49
2023/01/04 06:39:03;;;;;;;5.88;3.78;;;8.00;99.90;;;;;;5052377;28;20054;-57
2023/01/04 06:41:49;;;;;;;5.03;3.38;;;8.00;99.90;;;;;;5052497;28;20028;-54
2023/01/04 06:44:35;;;;;;;5.85;3.90;;;8.00;99.90;;;;;;5053396;28;20029;-53
2023/01/04 06:47:21;;;;;;;7.40;3.85;;;8.00;99.90;;;;;;5052881;28;20025;-48
2023/01/04 06:50:08;;;;;;;7.95;3.63;;;7.90;99.90;;;;;;5054355;28;20067;-50
2023/01/04 06:52:54;;;;;;;8.70;4.00;;;7.90;99.90;;;;;;5053238;28;20029;-49
2023/01/04 06:55:40;;;;;;;4.28;3.28;;;8.00;99.90;;;;;;5053904;28;20029;-51
2023/01/04 06:58:26;;;;;;;6.32;3.88;;;7.90;99.90;;;;;;5052768;28;20083;-50
2023/01/04 07:01:12;;;;;;;8.75;4.20;;;8.00;99.90;;;;;;5055230;28;20033;-45
2023/01/04 07:03:57;;;;;;;5.25;4.13;;;8.00;99.90;;;;;;5053614;28;20091;-49
2023/01/04 07:06:43;;;;;;;6.10;3.10;;;8.00;99.90;;;;;;5053457;28;20405;-52
2023/01/04 07:09:29;;;;;;;5.57;3.58;;;8.00;99.90;;;;;;5056043;28;20546;-53
2023/01/04 07:12:15;;;;;;;6.95;3.22;;;8.10;99.90;;;;;;5056269;28;20033;-51
2023/01/04 07:15:01;;;;;;;6.03;3.75;;;8.10;99.90;;;;;;5055145;28;20029;-53
2023/01/04 07:17:48;;;;;;;5.00;3.83;;;8.10;99.90;;;;;;5052998;28;20327;-55
2023/01/04 07:20:36;;;;;;;6.55;3.55;;;8.00;99.90;;;;;;5052670;28;20550;-43
2023/01/04 07:23:22;;;;;;;7.13;3.85;;;8.00;99.90;;;;;;5051378;28;20120;-48
2023/01/04 07:26:07;;;;;;;7.57;3.90;;;8.00;99.90;;;;;;5051240;28;20029;-52
2023/01/04 07:31:58;;;;;;;5.80;3.33;;;7.90;99.90;;;;;;5052063;28;20029;-54
2023/01/04 07:34:44;;;;;;;4.85;3.55;;;7.90;99.90;;;;;;5052070;28;20021;-48
2023/01/04 07:37:30;;;;;;;6.93;3.78;;;7.90;99.90;;;;;;5056553;28;20036;-53
2023/01/04 07:40:16;;;;;;;6.20;3.85;;;7.90;99.90;;;;;;5054874;28;20044;-53
2023/01/04 07:43:02;;;;;;;5.57;3.97;;;7.90;99.90;;;;;;5055037;28;20025;-46
2023/01/04 07:45:48;;;;;;;6.28;3.85;;;7.90;99.90;;;;;;5059580;28;20025;-45
2023/01/04 07:48:34;;;;;;;8.35;3.97;;;7.80;99.90;;;;;;5051693;28;20047;-47
2023/01/04 07:51:19;;;;;;;7.03;4.00;;;7.80;99.90;;;;;;5051459;28;20021;-50
2023/01/04 07:54:05;;;;;;;6.78;4.20;;;7.90;99.90;;;;;;5051206;28;20079;-50
2023/01/04 07:56:51;;;;;;;7.97;4.45;;;7.90;99.90;;;;;;5050070;28;20025;-47
2023/01/04 07:59:37;;;;;;;6.38;4.38;;;7.90;99.90;;;;;;5050561;28;20041;-51
2023/01/04 08:02:23;;;;;;;8.48;4.63;;;7.90;99.90;;;;;;5051462;28;20033;-49
2023/01/04 08:05:09;;;;;;;21.98;7.15;;;7.90;99.90;;;;;;5050522;28;20455;-50
2023/01/04 08:07:55;;;;;;;4.35;3.47;;;7.90;99.90;;;;;;5050821;28;20405;-51
2023/01/04 08:10:41;;;;;;;13.77;4.97;;;8.00;99.90;;;;;;5050972;28;20025;-49
2023/01/04 08:13:27;;;;;;;6.63;3.75;;;8.00;99.90;;;;;;5050519;28;20063;-49
2023/01/04 08:16:26;;;;;;;10.35;3.92;;;8.00;99.90;;;;;;5050154;28;20436;-54
2023/01/04 08:19:19;;;;;;;5.57;3.30;;;8.00;99.90;;;;;;5050073;28;20103;-52
2023/01/04 08:22:05;;;;;;;5.28;3.50;;;8.00;99.90;;;;;;5050259;28;20130;-57
2023/01/04 08:24:51;;;;;;;4.38;3.40;;;8.00;99.90;;;;;;5049903;28;20029;-58
2023/01/04 08:27:36;;;;;;;5.90;3.88;;;8.00;99.90;;;;;;5049798;28;20075;-53
2023/01/04 08:30:22;;;;;;;6.22;3.80;;;8.00;99.90;;;;;;5049635;28;20032;-56
2023/01/04 08:33:13;;;;;;;6.20;3.50;;;8.00;99.90;;;;;;5049689;28;20087;-50
2023/01/04 08:36:16;;;;;;;7.05;3.58;;;8.10;99.90;;;;;;5051387;28;20520;-55
2023/01/04 08:39:04;;;;;;;7.60;3.47;;;8.00;99.90;;;;;;5049926;28;20025;-48
2023/01/04 08:41:50;;;;;;;5.30;3.15;;;8.10;99.90;;;;;;5051255;28;20025;-54
2023/01/04 08:44:36;;;;;;;5.82;3.58;;;8.10;99.90;;;;;;5049724;28;20037;-50
2023/01/04 08:47:22;;;;;;;5.38;3.42;;;8.10;99.90;;;;;;5049858;28;20020;-52
2023/01/04 08:50:08;;;;;;;6.80;3.63;;;8.10;99.90;;;;;;5050472;28;20018;-44
2023/01/04 08:52:54;;;;;;;5.22;3.42;;;8.10;99.90;;;;;;5050860;28;20174;-44
2023/01/04 08:55:40;;;;;;;4.88;3.08;;;8.10;99.90;;;;;;5052716;28;20025;-50
2023/01/04 08:58:27;;;;;;;4.43;3.30;;;8.10;99.90;;;;;;5050213;28;20497;-51
2023/01/04 09:01:13;;;;;;;7.15;3.35;;;8.20;99.90;;;;;;5051255;28;20036;-52
2023/01/04 09:03:59;;;;;;;4.45;3.30;;;8.30;99.90;;;;;;5050142;28;20025;-51
2023/01/04 09:06:44;;;;;;;5.60;3.28;;;8.30;99.90;;;;;;5049700;28;20440;-50
2023/01/04 09:09:30;;;;;;;4.78;3.40;;;8.30;99.90;;;;;;5049810;28;20025;-52
2023/01/04 09:12:16;;;;;;;4.07;3.03;;;8.30;99.90;;;;;;5048249;28;20515;-51
2023/01/04 09:15:03;;;;;;;4.85;3.10;;;8.30;99.90;;;;;;5050685;28;20044;-50
2023/01/04 09:17:49;;;;;;;4.32;2.97;;;8.30;99.90;;;;;;5050437;28;20024;-50
2023/01/04 09:20:36;;;;;;;4.38;3.10;;;8.40;99.90;;;;;;5049824;28;20044;-46
2023/01/04 09:23:22;;;;;;;4.28;3.10;;;8.40;99.90;;;;;;5054881;28;20144;-45
2023/01/04 09:26:23;;;;;;;5.03;3.35;;;8.40;99.90;;;;;;5053267;28;20025;-46
2023/01/04 09:29:10;;;;;;;4.60;2.78;;;8.40;99.90;;;;;;5053320;28;20025;-52
2023/01/04 09:31:56;;;;;;;5.07;3.00;;;8.40;99.90;;;;;;5054607;28;20025;-46
2023/01/04 09:34:42;;;;;;;4.47;2.88;;;8.50;99.90;;;;;;5053326;28;20025;-47
2023/01/04 09:37:28;;;;;;;5.68;3.00;;;8.50;99.90;;;;;;5052959;28;20505;-48
2023/01/04 09:40:21;;;;;;;3.20;2.88;;;8.50;99.90;;;;;;5053398;28;20037;-49
2023/01/04 09:43:16;;;;;;;3.75;2.75;;;8.50;99.90;;;;;;5053471;28;20025;-49
2023/01/04 09:46:06;;;;;;;;;;;8.60;99.90;;;;;;5054494;28;20083;-49
2023/01/04 09:48:57;;;;;;;3.90;2.90;;;8.60;99.90;;;;;;5054792;28;19908;-47
2023/01/04 09:52:10;;;;;;;4.40;2.83;;;8.60;99.90;;;;;;5054698;28;20111;-48
2023/01/04 09:55:01;;;;;;;3.65;2.83;;;8.50;99.90;;;;;;5054760;28;20132;-53
2023/01/04 09:57:52;;;;;;;3.28;2.80;;;8.50;99.90;;;;;;5052745;28;20446;-48
2023/01/04 10:00:44;;;;;;;4.93;2.92;;;8.60;99.90;;;;;;5052966;28;20347;-48
2023/01/04 10:03:38;;;;;;;5.57;3.60;;;8.60;99.90;;;;;;5052763;28;20028;-51
2023/01/04 10:06:24;;;;;;;3.10;2.50;;;8.60;99.90;;;;;;5052435;28;20021;-58
2023/01/04 10:09:12;;;;;;;4.07;2.72;;;8.70;99.90;;;;;;5052654;28;20029;-56
2023/01/04 10:12:18;;;;;;;4.03;2.40;;;8.70;99.90;;;;;;5053012;28;20166;-54
2023/01/04 10:15:10;;;;;;;2.90;2.55;;;8.70;99.90;;;;;;5053764;28;20025;-53
2023/01/04 10:18:14;;;;;;;2.92;2.40;;;8.70;99.90;;;;;;5052133;28;20496;-53
2023/01/04 10:21:22;;;;;;;3.08;2.60;;;8.70;99.90;;;;;;5052296;28;20029;-57
2023/01/04 10:24:59;;;;;;;3.15;2.08;;;8.70;99.90;;;;;;5052316;28;20032;-54
2023/01/04 10:27:44;;;;;;;;;;;8.70;99.90;;;;;;5031726;28;20033;-56
2023/01/04 10:30:57;;;;;;;2.95;2.60;;;8.70;99.90;;;;;;5052800;28;19904;-54
2023/01/04 10:33:49;;;;;;;3.10;2.47;;;8.70;99.90;;;;;;5053201;28;20041;-57
2023/01/04 10:36:36;;;;;;;2.90;2.55;;;8.70;99.90;;;;;;5052411;28;20059;-53
2023/01/04 10:39:26;;;;;;;4.22;2.90;;;8.70;99.90;;;;;;5053409;28;20029;-53
2023/01/04 10:42:40;;;;;;;3.85;2.92;;;8.70;99.90;;;;;;5052438;28;20052;-51
2023/01/04 10:45:48;;;;;;;3.70;3.08;;;8.70;99.90;;;;;;5053223;28;20029;-54
2023/01/04 10:49:08;;;;;;;7.47;4.00;;;8.60;99.90;;;;;;5051831;28;20017;-54
2023/01/04 10:51:58;;;;;;;4.85;2.88;;;8.60;99.90;;;;;;5051699;28;20443;-54
2023/01/04 10:54:56;;;;;;;3.00;2.70;;;8.70;99.90;;;;;;5049331;28;20029;-52
2023/01/04 10:57:55;;;;;;;4.35;2.90;;;8.60;99.90;;;;;;5051052;28;20462;-55
2023/01/04 11:00:59;;;;;;;4.95;2.85;;;8.70;99.90;;;;;;5053484;28;20025;-58
2023/01/04 11:03:55;;;;;;;4.90;3.10;;;8.70;99.90;;;;;;5052928;28;20135;-54
2023/01/04 11:06:51;;;;;;;4.25;3.00;;;8.60;99.90;;;;;;5052927;28;20032;-52
2023/01/04 11:10:24;;;;;;;4.63;3.42;;;8.60;99.90;;;;;;5051745;28;20025;-56
2023/01/04 11:13:10;;;;;;;4.22;3.30;;;8.70;99.90;;;;;;5052654;28;20048;-51
2023/01/04 11:15:57;;;;;;;4.15;3.13;;;8.70;99.90;;;;;;5052931;28;20032;-51
2023/01/04 11:18:45;;;;;;;5.28;3.60;;;8.60;99.90;;;;;;5052966;28;20041;-55
2023/01/04 11:21:38;;;;;;;4.45;3.50;;;8.60;99.90;;;;;;5053821;28;20393;-57
2023/01/04 11:24:29;;;;;;;4.20;3.72;;;8.60;99.90;;;;;;5051322;28;20025;-55
2023/01/04 11:27:20;;;;;;;8.13;4.47;;;8.60;99.90;;;;;;5051296;28;20017;-52
2023/01/04 11:30:19;;;;;;;8.45;3.80;;;8.60;99.90;;;;;;5052739;28;20031;-52
2023/01/04 11:33:13;;;;;;;6.25;3.70;;;8.60;99.90;;;;;;5051331;28;20454;-51
2023/01/04 11:36:01;;;;;;;4.00;3.40;;;8.60;99.90;;;;;;5053405;28;20489;-51
2023/01/04 11:38:54;;;;;;;5.80;4.10;;;8.50;99.90;;;;;;5051253;28;20028;-51
2023/01/04 11:41:56;;;;;;;4.75;4.03;;;8.40;99.90;;;;;;5051965;28;20029;-57
2023/01/04 11:44:57;;;;;;;6.28;4.05;;;8.40;99.90;;;;;;5050532;28;20163;-54
2023/01/04 11:47:55;;;;;;;5.93;4.00;;;8.40;99.90;;;;;;5052870;28;20024;-52
2023/01/04 11:50:44;;;;;;;6.00;4.00;;;8.40;99.90;;;;;;5051323;28;20025;-51
2023/01/04 11:53:33;;;;;;;5.30;3.95;;;8.40;99.90;;;;;;5052336;28;20025;-55
2023/01/04 11:56:22;;;;;;;4.90;3.50;;;8.50;99.90;;;;;;5050942;28;20107;-53
2023/01/04 11:59:08;;;;;;;4.85;3.28;;;8.50;99.90;;;;;;5051017;28;20028;-51
2023/01/04 12:02:22;;;;;;;4.88;3.60;;;8.50;99.90;;;;;;5050561;28;20482;-52
2023/01/04 12:05:19;;;;;;;4.72;3.60;;;8.60;99.90;;;;;;5051871;28;20035;-53
2023/01/04 12:08:05;;;;;;;4.70;3.55;;;8.60;99.90;;;;;;5050691;28;20139;-50
2023/01/04 12:10:51;;;;;;;5.43;3.53;;;8.60;99.90;;;;;;5051121;28;20029;-48
2023/01/04 12:13:38;;;;;;;4.93;3.55;;;8.70;99.90;;;;;;5051400;28;20508;-48
2023/01/04 12:16:47;;;;;;;4.47;3.35;;;8.70;99.90;;;;;;5037583;28;20427;-53
2023/01/04 12:19:34;;;;;;;4.28;3.10;;;8.80;99.90;;;;;;5052481;28;20032;-53
2023/01/04 12:22:29;;;;;;;4.13;3.40;;;8.80;99.90;;;;;;5054218;28;20044;-54
2023/01/04 12:25:31;;;;;;;4.53;3.50;;;8.80;99.90;;;;;;5054852;28;20071;-54
2023/01/04 12:28:48;;;;;;;4.57;3.10;;;8.90;99.90;;;;;;5054435;28;20251;-55
2023/01/04 12:31:33;;;;;;;4.43;3.20;;;8.80;99.90;;;;;;5048126;28;20509;-55
2023/01/04 12:34:24;;;;;;;5.13;3.42;;;8.90;99.90;;;;;;5050783;28;20562;-52
2023/01/04 12:37:36;;;;;;;5.53;3.03;;;9.00;99.90;;;;;;5050525;28;20031;-51
2023/01/04 12:40:43;;;;;;;5.13;3.40;;;8.90;99.90;;;;;;5051159;28;20021;-54
2023/01/04 12:43:36;;;;;;;4.75;3.35;;;9.00;99.90;;;;;;5050481;28;20029;-48
2023/01/04 12:49:55;;;;;;;4.45;3.30;;;9.00;99.90;;;;;;5051115;28;20033;-51
2023/01/04 12:52:52;;;;;;;3.72;3.00;;;9.10;99.90;;;;;;5051152;28;20059;-50
2023/01/04 12:55:42;;;;;;;4.35;2.80;;;9.10;99.90;;;;;;5058510;28;20037;-53
2023/01/04 12:58:28;;;;;;;4.22;2.85;;;9.10;99.90;;;;;;5059707;28;20400;-47
2023/01/04 13:01:23;;;;;;;3.88;3.17;;;9.20;99.90;;;;;;5065988;28;20017;-51
2023/01/04 13:04:39;;;;;;;2.92;2.30;;;9.20;99.90;;;;;;5068548;28;20025;-49
2023/01/04 13:07:30;;;;;;;;;;;9.20;99.90;;;;;;5055335;28;20514;-53
2023/01/04 13:10:35;;;;;;;3.45;2.67;;;9.30;99.90;;;;;;5056435;28;19911;-56
2023/01/04 13:13:39;;;;;;;3.45;2.70;;;9.30;99.90;;;;;;5055500;28;20270;-54
2023/01/04 13:16:46;;;;;;;6.45;2.80;;;9.40;99.90;;;;;;5054076;28;20496;-55
2023/01/04 13:19:36;;;;;;;3.78;2.40;;;9.40;99.90;;;;;;5053631;28;20025;-55
2023/01/04 13:22:28;;;;;;;3.83;2.47;;;9.50;99.90;;;;;;5053312;28;20029;-54
2023/01/04 13:25:17;;;;;;;3.00;2.40;;;9.60;99.90;;;;;;5054966;28;20055;-56
2023/01/04 13:28:04;;;;;;;3.35;2.75;;;9.60;99.90;;;;;;5054097;28;20054;-53
2023/01/04 13:30:59;;;;;;;4.80;2.30;;;9.60;99.90;;;;;;5052712;28;20060;-56
2023/01/04 13:33:45;;;;;;;4.47;2.50;;;9.60;99.90;;;;;;5055208;28;20111;-57
2023/01/04 13:36:31;;;;;;;3.80;2.75;;;9.60;99.90;;;;;;5052958;28;20033;-56
2023/01/04 13:39:18;;;;;;;2.90;2.22;;;9.60;99.90;;;;;;5053854;28;20040;-53
2023/01/04 13:42:05;;;;;;;4.07;2.45;;;9.60;99.90;;;;;;5054106;28;20545;-55
2023/01/04 13:45:19;;;;;;;4.82;2.78;;;9.60;99.90;;;;;;5053048;28;20033;-52
2023/01/04 13:48:11;;;;;;;3.33;2.70;;;9.60;99.90;;;;;;5053348;28;20021;-57
2023/01/04 13:51:28;;;;;;;3.42;2.30;;;9.60;99.90;;;;;;5053338;28;20113;-57
2023/01/04 13:54:20;;;;;;;3.28;2.35;;;9.60;99.90;;;;;;5053403;28;20452;-52
2023/01/04 13:57:09;;;;;;;4.88;2.60;;;9.60;99.90;;;;;;5053763;28;20397;-56
2023/01/04 13:59:55;;;;;;;4.45;2.53;;;9.50;99.90;;;;;;5052945;28;20025;-55
2023/01/04 14:02:41;;;;;;;2.55;2.33;;;9.40;99.90;;;;;;5053197;28;20108;-53
2023/01/04 14:05:27;;;;;;;2.30;2.10;;;9.40;99.90;;;;;;5053362;28;20033;-55
2023/01/04 14:08:30;;;;;;;3.67;2.40;;;9.40;99.90;;;;;;5052107;28;20082;-57
2023/01/04 14:11:57;;;;;;;2.80;2.40;;;9.40;99.90;;;;;;5052789;28;20154;-54
2023/01/04 14:14:34;;;;;;;4.00;2.40;;;9.40;99.90;;;;;;5053676;28;20036;-56
2023/01/04 14:17:22;;;;;;;3.35;2.30;;;9.40;99.90;;;;;;5052205;28;20021;-53
2023/01/04 14:20:14;;;;;;;2.53;2.22;;;9.50;99.90;;;;;;5052886;28;20044;-51
2023/01/04 14:22:59;;;;;;;4.50;2.45;;;9.50;99.90;;;;;;5052199;28;20086;-51
2023/01/04 14:25:54;;;;;;;2.90;2.53;;;9.50;99.90;;;;;;5039679;28;20466;-58
2023/01/04 14:28:42;;;;;;;3.00;2.70;;;9.40;99.90;;;;;;5053224;28;20049;-56
2023/01/04 14:31:31;;;;;;;2.60;2.22;;;9.40;99.90;;;;;;5052345;28;20048;-56
2023/01/04 14:34:17;;;;;;;5.47;2.50;;;9.50;99.90;;;;;;5053602;28;20032;-59
2023/01/04 14:37:03;;;;;;;3.33;2.45;;;9.50;99.90;;;;;;5025327;28;20060;-53
2023/01/04 14:39:49;;;;;;;3.20;2.55;;;9.60;99.90;;;;;;5053458;28;20029;-55
2023/01/04 14:42:35;;;;;;;3.60;2.15;;;9.60;99.90;;;;;;5038332;28;20040;-54
2023/01/04 14:45:21;;;;;;;2.42;2.22;;;9.60;99.90;;;;;;5052067;28;20037;-55
2023/01/04 14:48:09;;;;;;;2.28;2.08;;;9.60;99.90;;;;;;5051796;28;20029;-54
2023/01/04 14:50:58;;;;;;;3.13;2.40;;;9.60;99.90;;;;;;5053155;28;20032;-56
2023/01/04 14:53:44;;;;;;;3.58;2.20;;;9.70;99.90;;;;;;5052888;28;20404;-54
2023/01/04 14:56:30;;;;;;;3.70;2.55;;;9.70;99.90;;;;;;5050622;28;20029;-55
2023/01/04 14:59:16;;;;;;;2.55;2.22;;;9.70;99.90;;;;;;5051710;28;20032;-58
2023/01/04 15:02:02;;;;;;;2.40;1.92;;;9.60;99.90;;;;;;5051878;28;20029;-56
2023/01/04 15:04:48;;;;;;;2.72;2.03;;;9.70;99.90;;;;;;5051705;28;20040;-57
2023/01/04 15:07:39;;;;;;;3.83;2.03;;;9.70;99.90;;;;;;5051029;28;20029;-54
2023/01/04 15:10:28;;;;;;;2.28;2.08;;;9.60;99.90;;;;;;5052870;28;20435;-54
2023/01/04 15:13:14;;;;;;;2.72;2.08;;;9.60;99.90;;;;;;5038203;28;20032;-54
2023/01/04 15:16:00;;;;;;;2.38;2.08;;;9.60;99.90;;;;;;5051511;28;20029;-52
2023/01/04 15:18:46;;;;;;;4.10;2.20;;;9.70;99.90;;;;;;5050586;28;20052;-55
2023/01/04 15:21:32;;;;;;;2.40;2.17;;;9.60;99.90;;;;;;5051586;28;20092;-56
2023/01/04 15:24:18;;;;;;;2.60;2.10;;;9.70;99.90;;;;;;5051365;28;20079;-53
2023/01/04 15:27:04;;;;;;;3.85;2.30;;;9.70;99.90;;;;;;5050968;28;20481;-56
2023/01/04 15:29:50;;;;;;;2.03;1.83;;;9.70;99.90;;;;;;5051126;28;20029;-56
2023/01/04 15:32:35;;;;;;;3.30;2.10;;;9.70;99.90;;;;;;5050955;28;20493;-54
2023/01/04 15:35:22;;;;;;;2.40;2.13;;;9.80;99.90;;;;;;5050907;28;20099;-57
2023/01/04 15:38:08;;;;;;;3.90;2.42;;;9.80;99.90;;;;;;5051402;28;20029;-56
2023/01/04 15:41:05;;;;;;;3.22;2.15;;;9.80;99.90;;;;;;5051913;28;20099;-51
2023/01/04 15:43:51;;;;;;;2.13;1.92;;;9.70;99.90;;;;;;5050552;28;20076;-55
2023/01/04 15:46:38;;;;;;;2.75;2.50;;;9.80;99.90;;;;;;5050583;28;20021;-59
2023/01/04 15:49:27;;;;;;;5.35;2.40;;;9.80;99.90;;;;;;5051995;28;20017;-58
2023/01/04 15:52:14;;;;;;;2.40;2.20;;;9.80;99.90;;;;;;5051832;28;20022;-53
2023/01/04 15:55:00;;;;;;;4.00;2.33;;;9.70;99.90;;;;;;5050547;28;20515;-51
2023/01/04 15:57:46;;;;;;;2.80;2.30;;;9.80;99.90;;;;;;5050303;28;20558;-55
2023/01/04 16:00:32;;;;;;;3.00;2.05;;;9.70;99.90;;;;;;5050362;28;20057;-57
2023/01/04 16:03:18;;;;;;;4.45;3.47;;;9.80;99.90;;;;;;5050317;28;20079;-57